SLRP weather

Rosapata Airport
Carangas, Oruro Department, Bolivia

Public forecast

Using degrees Celsius for public forecast. Weather courtesy of forecast.io.

Closest aviation weather report (METAR) to Rosapata Airport

Report is more than 6 hours old.

Closest report is Juan Mendoza Airport, 49.2 nm (91.1 km) NE. Retrieved 2020/04/03 14:00 UTC (9 hours ago):

SLOR 031400Z 31003KT 9999 FEW017 15/03 Q1039

Closest aviation forecast (TAF) to Rosapata Airport

Forecast is more than 12 hours old.

Closest forecast is Juan Mendoza Airport, 49.2 nm (91.1 km) NE. Retrieved 2020-03-10 00:30 UTC (25 days ago):

TAF SLOR 092200Z 1000/1024 00000KT 9999 SCT015 TX21/1020Z TN05/1010Z TEMPO 1018/1021 05013KT FEW020CB